sensor_id;sensor_type;location;lat;lon;timestamp;P1;durP1;ratioP1;P2;durP2;ratioP2
26474;SDS011;14161;52.270;10.334;2023-03-11T00:00:32;12.63;;;8.95;;
26474;SDS011;14161;52.270;10.334;2023-03-11T00:03:00;9.73;;;7.40;;
26474;SDS011;14161;52.270;10.334;2023-03-11T00:05:27;10.00;;;7.38;;
26474;SDS011;14161;52.270;10.334;2023-03-11T00:07:58;10.18;;;7.32;;
26474;SDS011;14161;52.270;10.334;2023-03-11T00:10:25;11.77;;;7.60;;
26474;SDS011;14161;52.270;10.334;2023-03-11T00:12:53;10.13;;;7.72;;
26474;SDS011;14161;52.270;10.334;2023-03-11T00:15:19;10.13;;;7.72;;
26474;SDS011;14161;52.270;10.334;2023-03-11T00:17:46;10.90;;;8.00;;
26474;SDS011;14161;52.270;10.334;2023-03-11T00:20:19;11.05;;;8.27;;
26474;SDS011;14161;52.270;10.334;2023-03-11T00:22:47;10.82;;;8.40;;
26474;SDS011;14161;52.270;10.334;2023-03-11T00:25:13;10.43;;;7.35;;
26474;SDS011;14161;52.270;10.334;2023-03-11T00:27:38;13.13;;;9.20;;
26474;SDS011;14161;52.270;10.334;2023-03-11T00:30:04;11.65;;;8.73;;
26474;SDS011;14161;52.270;10.334;2023-03-11T00:32:31;11.32;;;8.35;;
26474;SDS011;14161;52.270;10.334;2023-03-11T00:34:56;11.23;;;8.55;;
26474;SDS011;14161;52.270;10.334;2023-03-11T00:37:22;12.75;;;9.63;;
26474;SDS011;14161;52.270;10.334;2023-03-11T00:39:48;13.02;;;9.30;;
26474;SDS011;14161;52.270;10.334;2023-03-11T00:42:13;11.57;;;8.90;;
26474;SDS011;14161;52.270;10.334;2023-03-11T00:44:39;12.18;;;8.45;;
26474;SDS011;14161;52.270;10.334;2023-03-11T00:47:04;12.60;;;9.30;;
26474;SDS011;14161;52.270;10.334;2023-03-11T00:49:31;12.02;;;8.98;;
26474;SDS011;14161;52.270;10.334;2023-03-11T00:51:56;10.57;;;8.07;;
26474;SDS011;14161;52.270;10.334;2023-03-11T00:54:22;11.98;;;9.02;;
26474;SDS011;14161;52.270;10.334;2023-03-11T00:56:48;11.60;;;8.57;;
26474;SDS011;14161;52.270;10.334;2023-03-11T00:59:14;12.45;;;9.38;;
26474;SDS011;14161;52.270;10.334;2023-03-11T01:01:39;11.80;;;8.75;;
26474;SDS011;14161;52.270;10.334;2023-03-11T01:04:06;11.75;;;9.10;;
26474;SDS011;14161;52.270;10.334;2023-03-11T01:06:33;14.38;;;9.80;;
26474;SDS011;14161;52.270;10.334;2023-03-11T01:08:59;20.10;;;13.73;;
26474;SDS011;14161;52.270;10.334;2023-03-11T01:11:25;13.85;;;10.77;;
26474;SDS011;14161;52.270;10.334;2023-03-11T01:13:50;13.00;;;9.57;;
26474;SDS011;14161;52.270;10.334;2023-03-11T01:16:16;12.02;;;9.60;;
26474;SDS011;14161;52.270;10.334;2023-03-11T01:18:41;12.75;;;9.50;;
26474;SDS011;14161;52.270;10.334;2023-03-11T01:21:10;12.27;;;9.00;;
26474;SDS011;14161;52.270;10.334;2023-03-11T01:23:38;12.10;;;9.38;;
26474;SDS011;14161;52.270;10.334;2023-03-11T01:26:03;12.77;;;9.98;;
26474;SDS011;14161;52.270;10.334;2023-03-11T01:28:29;12.98;;;9.95;;
26474;SDS011;14161;52.270;10.334;2023-03-11T01:30:57;13.80;;;10.50;;
26474;SDS011;14161;52.270;10.334;2023-03-11T01:33:22;13.93;;;9.68;;
26474;SDS011;14161;52.270;10.334;2023-03-11T01:35:48;13.77;;;10.57;;
26474;SDS011;14161;52.270;10.334;2023-03-11T01:38:13;14.48;;;10.50;;
26474;SDS011;14161;52.270;10.334;2023-03-11T01:40:42;13.55;;;10.63;;
26474;SDS011;14161;52.270;10.334;2023-03-11T01:46:31;15.60;;;11.23;;
26474;SDS011;14161;52.270;10.334;2023-03-11T01:49:16;15.00;;;11.43;;
26474;SDS011;14161;52.270;10.334;2023-03-11T01:51:42;13.25;;;9.15;;
26474;SDS011;14161;52.270;10.334;2023-03-11T01:54:20;10.68;;;8.88;;
26474;SDS011;14161;52.270;10.334;2023-03-11T01:56:48;12.80;;;9.48;;
26474;SDS011;14161;52.270;10.334;2023-03-11T01:59:16;11.05;;;8.52;;
26474;SDS011;14161;52.270;10.334;2023-03-11T02:04:36;9.82;;;8.15;;
26474;SDS011;14161;52.270;10.334;2023-03-11T02:07:02;11.55;;;8.40;;
26474;SDS011;14161;52.270;10.334;2023-03-11T02:09:28;10.65;;;7.85;;
26474;SDS011;14161;52.270;10.334;2023-03-11T02:11:59;10.93;;;8.10;;
26474;SDS011;14161;52.270;10.334;2023-03-11T02:14:29;10.45;;;7.97;;
26474;SDS011;14161;52.270;10.334;2023-03-11T02:16:55;9.70;;;7.32;;
26474;SDS011;14161;52.270;10.334;2023-03-11T02:22:07;9.88;;;7.07;;
26474;SDS011;14161;52.270;10.334;2023-03-11T02:24:45;8.70;;;7.07;;
26474;SDS011;14161;52.270;10.334;2023-03-11T02:27:24;8.40;;;6.63;;
26474;SDS011;14161;52.270;10.334;2023-03-11T02:29:51;8.50;;;6.75;;
26474;SDS011;14161;52.270;10.334;2023-03-11T02:32:18;8.48;;;6.20;;
26474;SDS011;14161;52.270;10.334;2023-03-11T02:34:45;8.25;;;5.90;;
26474;SDS011;14161;52.270;10.334;2023-03-11T02:37:12;9.50;;;6.72;;
26474;SDS011;14161;52.270;10.334;2023-03-11T02:39:48;7.20;;;5.53;;
26474;SDS011;14161;52.270;10.334;2023-03-11T02:42:25;7.43;;;5.72;;
26474;SDS011;14161;52.270;10.334;2023-03-11T02:45:04;6.95;;;4.57;;
26474;SDS011;14161;52.270;10.334;2023-03-11T02:47:33;6.43;;;5.03;;
26474;SDS011;14161;52.270;10.334;2023-03-11T02:49:59;7.65;;;4.40;;
26474;SDS011;14161;52.270;10.334;2023-03-11T02:52:24;6.72;;;4.60;;
26474;SDS011;14161;52.270;10.334;2023-03-11T02:54:53;6.65;;;5.00;;
26474;SDS011;14161;52.270;10.334;2023-03-11T02:57:19;6.50;;;4.55;;
26474;SDS011;14161;52.270;10.334;2023-03-11T02:59:44;8.90;;;4.63;;
26474;SDS011;14161;52.270;10.334;2023-03-11T03:02:11;6.07;;;4.10;;
26474;SDS011;14161;52.270;10.334;2023-03-11T03:04:38;6.05;;;4.13;;
26474;SDS011;14161;52.270;10.334;2023-03-11T03:07:03;5.55;;;4.57;;
26474;SDS011;14161;52.270;10.334;2023-03-11T03:09:29;6.45;;;4.25;;
26474;SDS011;14161;52.270;10.334;2023-03-11T03:11:54;4.18;;;3.42;;
26474;SDS011;14161;52.270;10.334;2023-03-11T03:14:20;6.22;;;3.28;;
26474;SDS011;14161;52.270;10.334;2023-03-11T03:16:46;5.72;;;3.65;;
26474;SDS011;14161;52.270;10.334;2023-03-11T03:19:11;6.15;;;4.10;;
26474;SDS011;14161;52.270;10.334;2023-03-11T03:21:37;6.07;;;3.35;;
26474;SDS011;14161;52.270;10.334;2023-03-11T03:24:03;5.60;;;3.60;;
26474;SDS011;14161;52.270;10.334;2023-03-11T03:26:28;4.75;;;3.78;;
26474;SDS011;14161;52.270;10.334;2023-03-11T03:28:54;5.63;;;4.20;;
26474;SDS011;14161;52.270;10.334;2023-03-11T03:31:20;5.80;;;4.18;;
26474;SDS011;14161;52.270;10.334;2023-03-11T03:33:46;7.22;;;4.65;;
26474;SDS011;14161;52.270;10.334;2023-03-11T03:36:12;7.88;;;3.78;;
26474;SDS011;14161;52.270;10.334;2023-03-11T03:38:45;4.38;;;3.58;;
26474;SDS011;14161;52.270;10.334;2023-03-11T03:41:14;6.03;;;4.30;;
26474;SDS011;14161;52.270;10.334;2023-03-11T03:43:40;5.72;;;3.97;;
26474;SDS011;14161;52.270;10.334;2023-03-11T03:46:07;6.75;;;4.18;;
26474;SDS011;14161;52.270;10.334;2023-03-11T03:48:38;18.45;;;7.45;;
26474;SDS011;14161;52.270;10.334;2023-03-11T03:51:06;7.97;;;4.60;;
26474;SDS011;14161;52.270;10.334;2023-03-11T03:53:37;6.55;;;4.18;;
26474;SDS011;14161;52.270;10.334;2023-03-11T03:56:03;4.72;;;3.97;;
26474;SDS011;14161;52.270;10.334;2023-03-11T03:58:33;6.25;;;3.58;;
26474;SDS011;14161;52.270;10.334;2023-03-11T04:01:00;5.30;;;3.10;;
26474;SDS011;14161;52.270;10.334;2023-03-11T04:03:26;4.50;;;3.33;;
26474;SDS011;14161;52.270;10.334;2023-03-11T04:08:35;3.70;;;3.10;;
26474;SDS011;14161;52.270;10.334;2023-03-11T04:11:01;5.20;;;3.00;;
26474;SDS011;14161;52.270;10.334;2023-03-11T04:13:28;3.85;;;2.80;;
26474;SDS011;14161;52.270;10.334;2023-03-11T04:15:53;5.32;;;3.63;;
26474;SDS011;14161;52.270;10.334;2023-03-11T04:18:19;4.05;;;3.20;;
26474;SDS011;14161;52.270;10.334;2023-03-11T04:20:47;5.68;;;3.80;;
26474;SDS011;14161;52.270;10.334;2023-03-11T04:23:15;6.32;;;3.63;;
26474;SDS011;14161;52.270;10.334;2023-03-11T04:25:40;10.75;;;4.50;;
26474;SDS011;14161;52.270;10.334;2023-03-11T04:28:06;6.00;;;4.03;;
26474;SDS011;14161;52.270;10.334;2023-03-11T04:30:32;6.32;;;4.35;;
26474;SDS011;14161;52.270;10.334;2023-03-11T04:32:58;5.50;;;3.50;;
26474;SDS011;14161;52.270;10.334;2023-03-11T04:35:23;6.80;;;3.97;;
26474;SDS011;14161;52.270;10.334;2023-03-11T04:37:49;5.00;;;3.33;;
26474;SDS011;14161;52.270;10.334;2023-03-11T04:40:14;8.55;;;3.78;;
26474;SDS011;14161;52.270;10.334;2023-03-11T04:42:40;6.32;;;3.33;;
26474;SDS011;14161;52.270;10.334;2023-03-11T04:45:06;7.43;;;3.42;;
26474;SDS011;14161;52.270;10.334;2023-03-11T04:47:32;4.88;;;3.20;;
26474;SDS011;14161;52.270;10.334;2023-03-11T04:49:59;7.10;;;3.42;;
26474;SDS011;14161;52.270;10.334;2023-03-11T04:52:24;10.25;;;3.28;;
26474;SDS011;14161;52.270;10.334;2023-03-11T04:54:50;4.25;;;3.30;;
26474;SDS011;14161;52.270;10.334;2023-03-11T04:57:16;5.15;;;3.10;;
26474;SDS011;14161;52.270;10.334;2023-03-11T04:59:43;6.80;;;3.22;;
26474;SDS011;14161;52.270;10.334;2023-03-11T05:02:10;6.18;;;3.65;;
26474;SDS011;14161;52.270;10.334;2023-03-11T05:04:35;4.15;;;2.50;;
26474;SDS011;14161;52.270;10.334;2023-03-11T05:07:01;6.68;;;2.95;;
26474;SDS011;14161;52.270;10.334;2023-03-11T05:09:28;4.90;;;3.05;;
26474;SDS011;14161;52.270;10.334;2023-03-11T05:11:53;6.07;;;2.80;;
26474;SDS011;14161;52.270;10.334;2023-03-11T05:14:20;5.85;;;3.10;;
26474;SDS011;14161;52.270;10.334;2023-03-11T05:16:45;5.10;;;3.50;;
26474;SDS011;14161;52.270;10.334;2023-03-11T05:19:10;7.22;;;3.00;;
26474;SDS011;14161;52.270;10.334;2023-03-11T05:21:54;6.43;;;3.30;;
26474;SDS011;14161;52.270;10.334;2023-03-11T05:24:21;8.35;;;3.97;;
26474;SDS011;14161;52.270;10.334;2023-03-11T05:26:46;8.25;;;3.90;;
26474;SDS011;14161;52.270;10.334;2023-03-11T05:29:12;6.07;;;3.70;;
26474;SDS011;14161;52.270;10.334;2023-03-11T05:31:37;8.82;;;3.78;;
26474;SDS011;14161;52.270;10.334;2023-03-11T05:34:03;7.30;;;4.03;;
26474;SDS011;14161;52.270;10.334;2023-03-11T05:36:29;11.48;;;4.40;;
26474;SDS011;14161;52.270;10.334;2023-03-11T05:38:56;10.10;;;4.80;;
26474;SDS011;14161;52.270;10.334;2023-03-11T05:41:22;8.68;;;4.38;;
26474;SDS011;14161;52.270;10.334;2023-03-11T05:43:51;9.82;;;3.90;;
26474;SDS011;14161;52.270;10.334;2023-03-11T05:46:17;8.35;;;4.35;;
26474;SDS011;14161;52.270;10.334;2023-03-11T05:48:44;8.95;;;3.95;;
26474;SDS011;14161;52.270;10.334;2023-03-11T05:51:11;7.13;;;3.63;;
26474;SDS011;14161;52.270;10.334;2023-03-11T05:53:40;8.43;;;3.53;;
26474;SDS011;14161;52.270;10.334;2023-03-11T05:56:07;8.15;;;4.20;;
26474;SDS011;14161;52.270;10.334;2023-03-11T05:58:33;9.20;;;3.40;;
26474;SDS011;14161;52.270;10.334;2023-03-11T06:00:58;18.98;;;3.95;;
26474;SDS011;14161;52.270;10.334;2023-03-11T06:03:24;7.50;;;3.67;;
26474;SDS011;14161;52.270;10.334;2023-03-11T06:05:50;7.18;;;2.75;;
26474;SDS011;14161;52.270;10.334;2023-03-11T06:08:17;6.72;;;3.20;;
26474;SDS011;14161;52.270;10.334;2023-03-11T06:10:43;7.43;;;3.22;;
26474;SDS011;14161;52.270;10.334;2023-03-11T06:13:09;10.35;;;3.72;;
26474;SDS011;14161;52.270;10.334;2023-03-11T06:15:44;6.88;;;3.28;;
26474;SDS011;14161;52.270;10.334;2023-03-11T06:18:10;8.50;;;2.97;;
26474;SDS011;14161;52.270;10.334;2023-03-11T06:20:36;8.73;;;3.30;;
26474;SDS011;14161;52.270;10.334;2023-03-11T06:23:02;4.90;;;2.78;;
26474;SDS011;14161;52.270;10.334;2023-03-11T06:25:27;4.68;;;2.30;;
26474;SDS011;14161;52.270;10.334;2023-03-11T06:27:53;4.35;;;2.70;;
26474;SDS011;14161;52.270;10.334;2023-03-11T06:30:20;4.03;;;2.20;;
26474;SDS011;14161;52.270;10.334;2023-03-11T06:32:56;5.40;;;2.63;;
26474;SDS011;14161;52.270;10.334;2023-03-11T06:35:22;5.82;;;2.47;;
26474;SDS011;14161;52.270;10.334;2023-03-11T06:37:47;5.53;;;2.00;;
26474;SDS011;14161;52.270;10.334;2023-03-11T06:40:13;5.47;;;2.63;;
26474;SDS011;14161;52.270;10.334;2023-03-11T06:42:39;19.50;;;6.40;;
26474;SDS011;14161;52.270;10.334;2023-03-11T06:45:07;11.35;;;4.30;;
26474;SDS011;14161;52.270;10.334;2023-03-11T06:47:33;9.82;;;3.72;;
26474;SDS011;14161;52.270;10.334;2023-03-11T06:49:59;7.05;;;2.70;;
26474;SDS011;14161;52.270;10.334;2023-03-11T06:52:30;8.25;;;2.97;;
26474;SDS011;14161;52.270;10.334;2023-03-11T06:54:55;7.32;;;2.78;;
26474;SDS011;14161;52.270;10.334;2023-03-11T06:57:21;6.07;;;2.80;;
26474;SDS011;14161;52.270;10.334;2023-03-11T06:59:48;4.90;;;2.50;;
26474;SDS011;14161;52.270;10.334;2023-03-11T07:02:15;7.25;;;2.35;;
26474;SDS011;14161;52.270;10.334;2023-03-11T07:04:42;6.22;;;3.10;;
26474;SDS011;14161;52.270;10.334;2023-03-11T07:07:07;9.63;;;4.10;;
26474;SDS011;14161;52.270;10.334;2023-03-11T07:09:33;10.43;;;4.13;;
26474;SDS011;14161;52.270;10.334;2023-03-11T07:11:58;7.63;;;3.35;;
26474;SDS011;14161;52.270;10.334;2023-03-11T07:14:29;10.57;;;4.18;;
26474;SDS011;14161;52.270;10.334;2023-03-11T07:16:56;5.68;;;3.33;;
26474;SDS011;14161;52.270;10.334;2023-03-11T07:19:27;11.10;;;3.75;;
26474;SDS011;14161;52.270;10.334;2023-03-11T07:21:52;9.43;;;4.22;;
26474;SDS011;14161;52.270;10.334;2023-03-11T07:24:18;8.00;;;3.33;;
26474;SDS011;14161;52.270;10.334;2023-03-11T07:26:43;10.93;;;4.30;;
26474;SDS011;14161;52.270;10.334;2023-03-11T07:29:09;8.15;;;3.20;;
26474;SDS011;14161;52.270;10.334;2023-03-11T07:31:36;5.55;;;2.63;;
26474;SDS011;14161;52.270;10.334;2023-03-11T07:34:02;5.82;;;2.92;;
26474;SDS011;14161;52.270;10.334;2023-03-11T07:36:29;8.73;;;3.13;;
26474;SDS011;14161;52.270;10.334;2023-03-11T07:38:56;7.75;;;2.65;;
26474;SDS011;14161;52.270;10.334;2023-03-11T07:41:27;8.48;;;2.28;;
26474;SDS011;14161;52.270;10.334;2023-03-11T07:43:54;7.72;;;2.30;;
26474;SDS011;14161;52.270;10.334;2023-03-11T07:46:20;7.32;;;2.67;;
26474;SDS011;14161;52.270;10.334;2023-03-11T07:48:47;5.35;;;2.40;;
26474;SDS011;14161;52.270;10.334;2023-03-11T07:51:14;6.90;;;3.28;;
26474;SDS011;14161;52.270;10.334;2023-03-11T07:53:43;4.50;;;2.80;;
26474;SDS011;14161;52.270;10.334;2023-03-11T07:56:10;8.65;;;2.85;;
26474;SDS011;14161;52.270;10.334;2023-03-11T07:58:37;11.30;;;2.80;;
26474;SDS011;14161;52.270;10.334;2023-03-11T08:01:22;6.07;;;3.05;;
26474;SDS011;14161;52.270;10.334;2023-03-11T08:03:49;6.57;;;2.90;;
26474;SDS011;14161;52.270;10.334;2023-03-11T08:06:19;6.15;;;2.80;;
26474;SDS011;14161;52.270;10.334;2023-03-11T08:08:46;6.95;;;3.60;;
26474;SDS011;14161;52.270;10.334;2023-03-11T08:11:12;6.85;;;3.47;;
26474;SDS011;14161;52.270;10.334;2023-03-11T08:13:39;7.28;;;2.97;;
26474;SDS011;14161;52.270;10.334;2023-03-11T08:16:05;6.57;;;3.13;;
26474;SDS011;14161;52.270;10.334;2023-03-11T08:18:32;5.55;;;2.90;;
26474;SDS011;14161;52.270;10.334;2023-03-11T08:20:58;7.85;;;3.15;;
26474;SDS011;14161;52.270;10.334;2023-03-11T08:23:23;5.82;;;3.50;;
26474;SDS011;14161;52.270;10.334;2023-03-11T08:25:49;9.63;;;5.03;;
26474;SDS011;14161;52.270;10.334;2023-03-11T08:28:15;6.43;;;3.63;;
26474;SDS011;14161;52.270;10.334;2023-03-11T08:30:40;6.07;;;3.33;;
26474;SDS011;14161;52.270;10.334;2023-03-11T08:33:06;5.57;;;3.25;;
26474;SDS011;14161;52.270;10.334;2023-03-11T08:35:31;6.72;;;2.95;;
26474;SDS011;14161;52.270;10.334;2023-03-11T08:37:56;8.57;;;4.43;;
26474;SDS011;14161;52.270;10.334;2023-03-11T08:40:22;10.45;;;3.63;;
26474;SDS011;14161;52.270;10.334;2023-03-11T08:42:48;11.15;;;4.35;;
26474;SDS011;14161;52.270;10.334;2023-03-11T08:45:13;7.75;;;3.47;;
26474;SDS011;14161;52.270;10.334;2023-03-11T08:47:39;10.93;;;4.45;;
26474;SDS011;14161;52.270;10.334;2023-03-11T08:50:05;9.45;;;4.45;;
26474;SDS011;14161;52.270;10.334;2023-03-11T08:52:32;9.38;;;4.82;;
26474;SDS011;14161;52.270;10.334;2023-03-11T08:54:58;7.05;;;4.18;;
26474;SDS011;14161;52.270;10.334;2023-03-11T08:57:23;11.35;;;4.18;;
26474;SDS011;14161;52.270;10.334;2023-03-11T08:59:49;7.20;;;3.17;;
26474;SDS011;14161;52.270;10.334;2023-03-11T09:02:14;6.40;;;2.47;;
26474;SDS011;14161;52.270;10.334;2023-03-11T09:04:40;4.13;;;2.45;;
26474;SDS011;14161;52.270;10.334;2023-03-11T09:07:05;7.32;;;2.78;;
26474;SDS011;14161;52.270;10.334;2023-03-11T09:09:30;6.20;;;2.63;;
26474;SDS011;14161;52.270;10.334;2023-03-11T09:11:56;4.93;;;2.13;;
26474;SDS011;14161;52.270;10.334;2023-03-11T09:14:21;4.57;;;2.25;;
26474;SDS011;14161;52.270;10.334;2023-03-11T09:16:47;5.43;;;2.15;;
26474;SDS011;14161;52.270;10.334;2023-03-11T09:19:12;5.72;;;2.90;;
26474;SDS011;14161;52.270;10.334;2023-03-11T09:21:38;6.93;;;3.13;;
26474;SDS011;14161;52.270;10.334;2023-03-11T09:24:03;6.03;;;2.65;;
26474;SDS011;14161;52.270;10.334;2023-03-11T09:26:29;9.25;;;2.25;;
26474;SDS011;14161;52.270;10.334;2023-03-11T09:28:55;10.85;;;3.15;;
26474;SDS011;14161;52.270;10.334;2023-03-11T09:31:21;13.65;;;3.50;;
26474;SDS011;14161;52.270;10.334;2023-03-11T09:33:47;9.20;;;4.82;;
26474;SDS011;14161;52.270;10.334;2023-03-11T09:36:15;6.55;;;3.05;;
26474;SDS011;14161;52.270;10.334;2023-03-11T09:38:41;7.30;;;3.60;;
26474;SDS011;14161;52.270;10.334;2023-03-11T09:41:08;18.33;;;4.30;;
26474;SDS011;14161;52.270;10.334;2023-03-11T09:43:42;9.13;;;3.42;;
26474;SDS011;14161;52.270;10.334;2023-03-11T09:48:52;7.78;;;3.47;;
26474;SDS011;14161;52.270;10.334;2023-03-11T09:51:24;10.35;;;3.53;;
26474;SDS011;14161;52.270;10.334;2023-03-11T09:54:02;5.22;;;3.13;;
26474;SDS011;14161;52.270;10.334;2023-03-11T09:56:29;7.72;;;2.88;;
26474;SDS011;14161;52.270;10.334;2023-03-11T09:58:59;8.70;;;4.50;;
26474;SDS011;14161;52.270;10.334;2023-03-11T10:07:15;4.50;;;2.90;;
26474;SDS011;14161;52.270;10.334;2023-03-11T10:09:47;6.40;;;3.00;;
26474;SDS011;14161;52.270;10.334;2023-03-11T10:12:23;3.67;;;2.70;;
26474;SDS011;14161;52.270;10.334;2023-03-11T10:23:00;5.82;;;3.35;;
26474;SDS011;14161;52.270;10.334;2023-03-11T10:28:39;4.28;;;3.38;;
26474;SDS011;14161;52.270;10.334;2023-03-11T10:31:15;6.75;;;4.13;;
26474;SDS011;14161;52.270;10.334;2023-03-11T10:33:54;6.70;;;4.25;;
26474;SDS011;14161;52.270;10.334;2023-03-11T10:36:22;6.00;;;4.47;;
26474;SDS011;14161;52.270;10.334;2023-03-11T10:38:50;8.27;;;3.35;;
26474;SDS011;14161;52.270;10.334;2023-03-11T10:41:22;8.98;;;3.45;;
26474;SDS011;14161;52.270;10.334;2023-03-11T10:43:59;9.35;;;4.70;;
26474;SDS011;14161;52.270;10.334;2023-03-11T10:46:28;4.80;;;3.80;;
26474;SDS011;14161;52.270;10.334;2023-03-11T10:48:54;6.35;;;3.35;;
26474;SDS011;14161;52.270;10.334;2023-03-11T10:51:23;6.20;;;3.17;;
26474;SDS011;14161;52.270;10.334;2023-03-11T10:53:52;5.95;;;4.00;;
26474;SDS011;14161;52.270;10.334;2023-03-11T10:56:39;7.93;;;3.40;;
26474;SDS011;14161;52.270;10.334;2023-03-11T10:59:27;7.90;;;3.83;;
26474;SDS011;14161;52.270;10.334;2023-03-11T11:02:01;9.70;;;3.70;;
26474;SDS011;14161;52.270;10.334;2023-03-11T11:06:55;4.50;;;2.80;;
26474;SDS011;14161;52.270;10.334;2023-03-11T11:09:21;6.90;;;3.08;;
26474;SDS011;14161;52.270;10.334;2023-03-11T11:12:20;9.65;;;3.65;;
26474;SDS011;14161;52.270;10.334;2023-03-11T11:14:44;4.65;;;3.15;;
26474;SDS011;14161;52.270;10.334;2023-03-11T11:17:19;7.10;;;3.20;;
26474;SDS011;14161;52.270;10.334;2023-03-11T11:19:48;6.63;;;3.35;;
26474;SDS011;14161;52.270;10.334;2023-03-11T11:22:15;5.05;;;3.00;;
26474;SDS011;14161;52.270;10.334;2023-03-11T11:24:43;4.00;;;2.50;;
26474;SDS011;14161;52.270;10.334;2023-03-11T11:27:27;6.68;;;3.20;;
26474;SDS011;14161;52.270;10.334;2023-03-11T11:30:02;5.72;;;3.20;;
26474;SDS011;14161;52.270;10.334;2023-03-11T11:32:37;5.32;;;2.65;;
26474;SDS011;14161;52.270;10.334;2023-03-11T11:37:31;4.93;;;2.65;;
26474;SDS011;14161;52.270;10.334;2023-03-11T11:40:06;4.50;;;2.67;;
26474;SDS011;14161;52.270;10.334;2023-03-11T11:42:43;3.50;;;2.22;;
26474;SDS011;14161;52.270;10.334;2023-03-11T11:47:39;4.63;;;2.47;;
26474;SDS011;14161;52.270;10.334;2023-03-11T11:50:22;4.68;;;2.30;;
26474;SDS011;14161;52.270;10.334;2023-03-11T11:53:02;3.30;;;2.13;;
26474;SDS011;14161;52.270;10.334;2023-03-11T11:55:50;5.43;;;2.75;;
26474;SDS011;14161;52.270;10.334;2023-03-11T11:58:19;4.88;;;2.05;;
26474;SDS011;14161;52.270;10.334;2023-03-11T12:05:43;6.18;;;2.08;;
26474;SDS011;14161;52.270;10.334;2023-03-11T12:08:18;9.05;;;2.33;;
26474;SDS011;14161;52.270;10.334;2023-03-11T12:19:14;5.70;;;2.50;;
26474;SDS011;14161;52.270;10.334;2023-03-11T12:24:22;5.45;;;2.45;;
26474;SDS011;14161;52.270;10.334;2023-03-11T12:27:19;6.20;;;2.42;;
26474;SDS011;14161;52.270;10.334;2023-03-11T12:29:47;5.75;;;2.22;;
26474;SDS011;14161;52.270;10.334;2023-03-11T12:32:21;5.15;;;2.33;;
26474;SDS011;14161;52.270;10.334;2023-03-11T12:34:49;7.07;;;2.50;;
26474;SDS011;14161;52.270;10.334;2023-03-11T12:37:17;8.20;;;2.40;;
26474;SDS011;14161;52.270;10.334;2023-03-11T12:39:45;5.97;;;2.78;;
26474;SDS011;14161;52.270;10.334;2023-03-11T12:44:43;9.25;;;2.55;;
26474;SDS011;14161;52.270;10.334;2023-03-11T12:49:36;3.97;;;2.00;;
26474;SDS011;14161;52.270;10.334;2023-03-11T12:54:38;3.47;;;2.08;;
26474;SDS011;14161;52.270;10.334;2023-03-11T13:07:45;4.15;;;1.90;;
26474;SDS011;14161;52.270;10.334;2023-03-11T13:10:14;7.25;;;2.03;;
26474;SDS011;14161;52.270;10.334;2023-03-11T13:12:43;6.18;;;1.95;;
26474;SDS011;14161;52.270;10.334;2023-03-11T13:26:03;4.88;;;1.33;;
26474;SDS011;14161;52.270;10.334;2023-03-11T13:28:42;3.50;;;1.42;;
26474;SDS011;14161;52.270;10.334;2023-03-11T13:41:35;10.13;;;1.70;;
26474;SDS011;14161;52.270;10.334;2023-03-11T13:46:49;6.95;;;1.83;;
26474;SDS011;14161;52.270;10.334;2023-03-11T13:51:48;3.97;;;1.55;;
26474;SDS011;14161;52.270;10.334;2023-03-11T13:56:44;4.85;;;1.15;;
26474;SDS011;14161;52.270;10.334;2023-03-11T13:59:17;4.65;;;1.38;;
26474;SDS011;14161;52.270;10.334;2023-03-11T14:01:47;6.82;;;1.55;;
26474;SDS011;14161;52.270;10.334;2023-03-11T14:04:22;3.80;;;1.02;;
26474;SDS011;14161;52.270;10.334;2023-03-11T14:06:50;7.72;;;1.40;;
26474;SDS011;14161;52.270;10.334;2023-03-11T14:09:24;4.28;;;1.40;;
26474;SDS011;14161;52.270;10.334;2023-03-11T14:11:54;4.18;;;1.40;;
26474;SDS011;14161;52.270;10.334;2023-03-11T14:17:14;3.13;;;1.58;;
26474;SDS011;14161;52.270;10.334;2023-03-11T14:19:41;7.63;;;1.17;;
26474;SDS011;14161;52.270;10.334;2023-03-11T14:22:07;4.15;;;1.42;;
26474;SDS011;14161;52.270;10.334;2023-03-11T14:24:34;2.90;;;1.20;;
26474;SDS011;14161;52.270;10.334;2023-03-11T14:27:01;6.32;;;1.48;;
26474;SDS011;14161;52.270;10.334;2023-03-11T14:32:23;4.18;;;1.20;;
26474;SDS011;14161;52.270;10.334;2023-03-11T14:34:49;2.67;;;1.05;;
26474;SDS011;14161;52.270;10.334;2023-03-11T14:37:22;3.42;;;1.13;;
26474;SDS011;14161;52.270;10.334;2023-03-11T14:39:49;2.53;;;0.90;;
26474;SDS011;14161;52.270;10.334;2023-03-11T14:42:22;5.07;;;1.17;;
26474;SDS011;14161;52.270;10.334;2023-03-11T14:45:09;2.80;;;1.00;;
26474;SDS011;14161;52.270;10.334;2023-03-11T14:50:15;5.10;;;1.10;;
26474;SDS011;14161;52.270;10.334;2023-03-11T14:55:34;3.25;;;1.00;;
26474;SDS011;14161;52.270;10.334;2023-03-11T15:00:39;4.38;;;1.20;;
26474;SDS011;14161;52.270;10.334;2023-03-11T15:03:21;4.68;;;0.85;;
26474;SDS011;14161;52.270;10.334;2023-03-11T15:05:52;6.15;;;1.08;;
26474;SDS011;14161;52.270;10.334;2023-03-11T15:08:20;5.47;;;0.90;;
26474;SDS011;14161;52.270;10.334;2023-03-11T15:13:34;1.63;;;0.63;;
26474;SDS011;14161;52.270;10.334;2023-03-11T15:16:01;1.70;;;0.60;;
26474;SDS011;14161;52.270;10.334;2023-03-11T15:18:31;3.67;;;1.48;;
26474;SDS011;14161;52.270;10.334;2023-03-11T15:21:04;4.22;;;0.80;;
26474;SDS011;14161;52.270;10.334;2023-03-11T15:23:43;4.05;;;1.25;;
26474;SDS011;14161;52.270;10.334;2023-03-11T15:26:29;2.95;;;0.90;;
26474;SDS011;14161;52.270;10.334;2023-03-11T15:33:47;3.00;;;1.00;;
26474;SDS011;14161;52.270;10.334;2023-03-11T15:36:33;4.50;;;1.10;;
26474;SDS011;14161;52.270;10.334;2023-03-11T15:39:14;4.30;;;1.15;;
26474;SDS011;14161;52.270;10.334;2023-03-11T15:42:31;6.53;;;1.25;;
26474;SDS011;14161;52.270;10.334;2023-03-11T15:44:33;5.85;;;0.82;;
26474;SDS011;14161;52.270;10.334;2023-03-11T15:47:00;1.58;;;0.77;;
26474;SDS011;14161;52.270;10.334;2023-03-11T15:49:26;5.18;;;1.25;;
26474;SDS011;14161;52.270;10.334;2023-03-11T15:51:56;3.75;;;0.70;;
26474;SDS011;14161;52.270;10.334;2023-03-11T15:54:25;3.13;;;1.00;;
26474;SDS011;14161;52.270;10.334;2023-03-11T15:56:51;3.88;;;0.82;;
26474;SDS011;14161;52.270;10.334;2023-03-11T15:59:17;1.88;;;0.70;;
26474;SDS011;14161;52.270;10.334;2023-03-11T16:01:42;3.65;;;0.80;;
26474;SDS011;14161;52.270;10.334;2023-03-11T16:04:11;1.75;;;0.65;;
26474;SDS011;14161;52.270;10.334;2023-03-11T16:06:39;1.95;;;0.70;;
26474;SDS011;14161;52.270;10.334;2023-03-11T16:09:05;1.77;;;0.50;;
26474;SDS011;14161;52.270;10.334;2023-03-11T16:11:30;3.42;;;0.73;;
26474;SDS011;14161;52.270;10.334;2023-03-11T16:13:57;1.63;;;0.63;;
26474;SDS011;14161;52.270;10.334;2023-03-11T16:16:23;1.63;;;0.80;;
26474;SDS011;14161;52.270;10.334;2023-03-11T16:18:48;2.45;;;0.80;;
26474;SDS011;14161;52.270;10.334;2023-03-11T16:21:18;2.30;;;1.20;;
26474;SDS011;14161;52.270;10.334;2023-03-11T16:23:45;2.85;;;0.80;;
26474;SDS011;14161;52.270;10.334;2023-03-11T16:26:10;4.18;;;0.85;;
26474;SDS011;14161;52.270;10.334;2023-03-11T16:28:36;2.75;;;0.73;;
26474;SDS011;14161;52.270;10.334;2023-03-11T16:31:02;4.20;;;0.73;;
26474;SDS011;14161;52.270;10.334;2023-03-11T16:33:28;3.38;;;1.02;;
26474;SDS011;14161;52.270;10.334;2023-03-11T16:35:53;4.93;;;0.90;;
26474;SDS011;14161;52.270;10.334;2023-03-11T16:38:19;2.70;;;0.75;;
26474;SDS011;14161;52.270;10.334;2023-03-11T16:40:54;3.17;;;0.55;;